createdAt,value
2022-12-25T00:02:08.881Z,101098.38
2022-12-25T00:04:42.468Z,101101.25
2022-12-25T00:07:17.537Z,101095.22
2022-12-25T00:09:51.260Z,101103.13
2022-12-25T00:12:24.801Z,101101.31
2022-12-25T00:14:58.377Z,101104.94
2022-12-25T00:17:31.723Z,101103.25
2022-12-25T00:20:05.727Z,101112.44
2022-12-25T00:22:40.487Z,101119.44
2022-12-25T00:25:14.056Z,101111.41
2022-12-25T00:27:47.638Z,101107.78
2022-12-25T00:30:21.181Z,101113.63
2022-12-25T00:32:54.453Z,101126.69
2022-12-25T00:35:28.042Z,101124.50
2022-12-25T00:38:02.685Z,101131.75
2022-12-25T00:40:42.094Z,101138.69
2022-12-25T00:43:15.622Z,101141.00
2022-12-25T00:45:56.060Z,101135.34
2022-12-25T00:48:30.509Z,101134.03
2022-12-25T00:51:05.844Z,101136.34
2022-12-25T00:53:40.654Z,101144.22
2022-12-25T00:56:14.189Z,101129.38
2022-12-25T00:58:47.758Z,101122.91
2022-12-25T01:01:21.363Z,101115.94
2022-12-25T01:03:54.768Z,101116.34
2022-12-25T01:06:28.393Z,101115.13
2022-12-25T01:09:20.326Z,101117.59
2022-12-25T01:11:54.091Z,101126.50
2022-12-25T01:14:27.414Z,101120.19
2022-12-25T01:17:01.007Z,101119.00
2022-12-25T01:19:34.381Z,101123.78
2022-12-25T01:22:07.959Z,101123.66
2022-12-25T01:24:42.639Z,101122.88
2022-12-25T01:27:16.466Z,101130.19
2022-12-25T01:29:49.935Z,101127.22
2022-12-25T01:32:23.480Z,101131.22
2022-12-25T01:34:56.796Z,101134.44
2022-12-25T01:37:30.368Z,101136.13
2022-12-25T01:40:05.616Z,101144.38
2022-12-25T01:42:39.365Z,101145.16
2022-12-25T01:45:27.584Z,101150.31
2022-12-25T01:48:03.200Z,101154.84
2022-12-25T01:50:37.127Z,101153.69
2022-12-25T01:53:10.825Z,101162.97
2022-12-25T01:55:47.258Z,101159.63
2022-12-25T01:58:21.014Z,101160.91
2022-12-25T02:00:54.585Z,101165.03
2022-12-25T02:03:28.389Z,101161.53
2022-12-25T02:06:02.268Z,101172.34
2022-12-25T02:08:35.776Z,101172.78
2022-12-25T02:11:31.837Z,59053.16
2022-12-25T02:14:05.529Z,59053.16
2022-12-25T02:16:58.074Z,59053.16
2022-12-25T02:19:41.041Z,59053.16
2022-12-25T02:22:22.367Z,59053.16
2022-12-25T02:25:04.999Z,101180.44
2022-12-25T02:27:54.438Z,101180.28
2022-12-25T02:30:30.844Z,101183.50
2022-12-25T02:33:21.552Z,101180.31
2022-12-25T02:35:56.587Z,101178.75
2022-12-25T02:38:32.886Z,101183.50
2022-12-25T02:41:08.275Z,101188.50
2022-12-25T02:44:02.151Z,101191.84
2022-12-25T02:46:49.604Z,101185.78
2022-12-25T02:49:42.350Z,101188.34
2022-12-25T02:52:36.172Z,101179.44
2022-12-25T02:55:29.520Z,101186.41
2022-12-25T02:58:22.853Z,101184.84
2022-12-25T03:01:17.793Z,101190.34
2022-12-25T03:04:10.035Z,101190.50
2022-12-25T03:06:51.879Z,101191.44
2022-12-25T03:09:44.952Z,101191.53
2022-12-25T03:12:21.821Z,101185.47
2022-12-25T03:15:12.749Z,101166.09
2022-12-25T03:17:47.629Z,101165.03
2022-12-25T03:20:38.965Z,101168.38
2022-12-25T03:23:30.752Z,101173.41
2022-12-25T03:26:22.132Z,101161.00
2022-12-25T03:28:55.546Z,101182.28
2022-12-25T03:31:36.477Z,101176.84
2022-12-25T03:34:36.777Z,101171.41
2022-12-25T03:37:24.425Z,101168.19
2022-12-25T03:40:21.844Z,101178.53
2022-12-25T03:43:16.837Z,101184.94
2022-12-25T03:46:21.181Z,101184.56
2022-12-25T03:49:18.108Z,101182.81
2022-12-25T03:52:12.692Z,101179.91
2022-12-25T03:55:04.465Z,101171.28
2022-12-25T03:57:55.822Z,101169.75
2022-12-25T04:00:46.717Z,101171.13
2022-12-25T04:03:37.635Z,101172.31
2022-12-25T04:06:28.971Z,59053.16
2022-12-25T04:09:20.909Z,101154.00
2022-12-25T04:12:12.036Z,101153.41
2022-12-25T04:15:02.866Z,101136.84
2022-12-25T04:17:54.206Z,101126.31
2022-12-25T04:20:44.940Z,101123.75
2022-12-25T04:23:35.872Z,101134.72
2022-12-25T04:26:28.313Z,101117.97
2022-12-25T04:29:30.646Z,101129.41
2022-12-25T04:32:23.917Z,101141.53
2022-12-25T04:35:14.700Z,101129.53
2022-12-25T04:37:48.524Z,101132.13
2022-12-25T04:40:22.062Z,101124.25
2022-12-25T04:42:56.763Z,101130.16
2022-12-25T04:45:30.581Z,101121.94
2022-12-25T04:48:04.011Z,101119.50
2022-12-25T04:50:37.559Z,101116.03
2022-12-25T04:53:10.928Z,101125.06
2022-12-25T04:55:44.776Z,101130.44
2022-12-25T04:58:19.553Z,101132.88
2022-12-25T05:00:53.249Z,101119.59
2022-12-25T05:03:26.691Z,101108.56
2022-12-25T05:06:00.618Z,101121.44
2022-12-25T05:08:35.213Z,101109.97
2022-12-25T05:11:09.496Z,101103.72
2022-12-25T05:13:44.391Z,101105.22
2022-12-25T05:16:19.315Z,101104.03
2022-12-25T05:18:53.300Z,101101.34
2022-12-25T05:21:26.903Z,101103.13
2022-12-25T05:24:00.201Z,101099.16
2022-12-25T05:26:33.710Z,101092.66
2022-12-25T05:29:08.488Z,101088.66
2022-12-25T05:31:42.106Z,101087.66
2022-12-25T05:34:15.531Z,101087.53
2022-12-25T05:36:49.007Z,101078.91
2022-12-25T05:39:22.271Z,101080.84
2022-12-25T05:41:55.846Z,101081.25
2022-12-25T05:44:30.559Z,101082.72
2022-12-25T05:47:04.190Z,101083.13
2022-12-25T05:49:37.592Z,101080.94
2022-12-25T05:52:11.157Z,101077.09
2022-12-25T05:54:44.516Z,101083.16
2022-12-25T05:57:18.092Z,101084.19
2022-12-25T05:59:52.749Z,101086.91
2022-12-25T06:02:26.743Z,101095.72
2022-12-25T06:05:00.260Z,101090.69
2022-12-25T06:07:34.266Z,101094.03
2022-12-25T06:10:08.334Z,101097.66
2022-12-25T06:12:42.102Z,101094.69
2022-12-25T06:15:16.852Z,101102.31
2022-12-25T06:17:50.476Z,101088.94
2022-12-25T06:20:23.805Z,101098.50
2022-12-25T06:22:57.501Z,101098.38
2022-12-25T06:25:31.160Z,101088.44
2022-12-25T06:28:04.894Z,101079.66
2022-12-25T06:30:39.563Z,101084.00
2022-12-25T06:33:13.097Z,101091.22
2022-12-25T06:35:46.429Z,101090.84
2022-12-25T06:38:20.016Z,101089.66
2022-12-25T06:40:53.394Z,101086.22
2022-12-25T06:43:27.013Z,101101.97
2022-12-25T06:46:04.885Z,101101.22
2022-12-25T06:48:39.584Z,101098.91
2022-12-25T06:51:13.601Z,101106.50
2022-12-25T06:53:47.284Z,101100.19
2022-12-25T06:56:21.554Z,101091.94
2022-12-25T06:58:56.147Z,101094.78
2022-12-25T07:01:31.926Z,101096.72
2022-12-25T07:04:06.778Z,101093.53
2022-12-25T07:06:40.183Z,101104.19
2022-12-25T07:09:13.836Z,101093.25
2022-12-25T07:11:47.175Z,101103.44
2022-12-25T07:14:24.188Z,101112.06
2022-12-25T07:16:59.311Z,101113.63
2022-12-25T07:19:32.909Z,101110.00
2022-12-25T07:22:06.203Z,101120.31
2022-12-25T07:24:39.817Z,101112.97
2022-12-25T07:27:13.350Z,101121.22
2022-12-25T07:29:46.998Z,101123.59
2022-12-25T07:32:21.756Z,101112.22
2022-12-25T07:34:55.338Z,101106.44
2022-12-25T07:37:28.679Z,101107.59
2022-12-25T07:40:02.213Z,101115.09
2022-12-25T07:42:36.340Z,101117.94
2022-12-25T07:45:10.329Z,101118.72
2022-12-25T07:47:45.695Z,101112.25
2022-12-25T07:50:19.384Z,101111.13
2022-12-25T07:52:52.733Z,101111.53
2022-12-25T07:55:26.383Z,101112.56
2022-12-25T07:57:59.779Z,101097.31
2022-12-25T08:00:33.436Z,101101.47
2022-12-25T08:03:08.516Z,101102.75
2022-12-25T08:05:42.231Z,101089.19
2022-12-25T08:08:15.625Z,101093.75
2022-12-25T08:10:49.284Z,101100.41
2022-12-25T08:13:22.740Z,101096.31
2022-12-25T08:15:57.870Z,101083.91
2022-12-25T08:18:33.099Z,101071.25
2022-12-25T08:21:07.861Z,101066.59
2022-12-25T08:23:42.257Z,101072.78
2022-12-25T08:26:17.422Z,101067.75
2022-12-25T08:28:51.311Z,101070.63
2022-12-25T08:31:26.245Z,59053.16
2022-12-25T08:34:02.598Z,59053.16
2022-12-25T08:36:36.209Z,101074.22
2022-12-25T08:39:09.791Z,101076.91
2022-12-25T08:41:43.512Z,101076.81
2022-12-25T08:44:16.866Z,101082.59
2022-12-25T08:46:50.409Z,101079.25
2022-12-25T08:49:27.287Z,101071.75
2022-12-25T08:52:02.043Z,101079.69
2022-12-25T08:54:36.420Z,101082.75
2022-12-25T08:57:10.146Z,101079.28
2022-12-25T08:59:43.525Z,101092.94
2022-12-25T09:02:17.848Z,101093.72
2022-12-25T09:04:52.639Z,101102.25
2022-12-25T09:07:26.284Z,101108.19
2022-12-25T09:09:59.707Z,101099.53
2022-12-25T09:12:33.377Z,101101.22
2022-12-25T09:15:07.298Z,101092.16
2022-12-25T09:17:41.316Z,101094.63
2022-12-25T09:20:16.100Z,101095.16
2022-12-25T09:22:50.477Z,101090.22
2022-12-25T09:25:23.813Z,101093.06
2022-12-25T09:27:57.750Z,101090.22
2022-12-25T09:30:31.189Z,101102.78
2022-12-25T09:33:04.749Z,101091.53
2022-12-25T09:35:39.457Z,101098.66
2022-12-25T09:38:13.384Z,101098.41
2022-12-25T09:40:46.757Z,101100.31
2022-12-25T09:43:21.753Z,101096.31
2022-12-25T09:45:55.358Z,101096.44
2022-12-25T09:48:30.477Z,101089.31
2022-12-25T09:51:08.725Z,101094.63
2022-12-25T09:53:46.865Z,101089.69
2022-12-25T09:56:25.470Z,101097.69
2022-12-25T09:58:59.674Z,101100.91
2022-12-25T10:01:36.213Z,101090.97
2022-12-25T10:04:18.442Z,101095.34
2022-12-25T10:07:01.101Z,101093.53
2022-12-25T10:09:39.006Z,101093.66
2022-12-25T10:12:18.727Z,101094.44
2022-12-25T10:15:01.952Z,101095.22
2022-12-25T10:17:42.122Z,101084.47
2022-12-25T10:20:19.516Z,101090.66
2022-12-25T10:22:58.291Z,101092.97
2022-12-25T10:25:32.836Z,101080.56
2022-12-25T10:28:12.400Z,101064.47
2022-12-25T10:30:46.158Z,101063.03
2022-12-25T10:33:21.254Z,101061.47
2022-12-25T10:35:54.853Z,101050.22
2022-12-25T10:38:29.461Z,101046.31
2022-12-25T10:41:10.652Z,101044.75
2022-12-25T10:43:46.324Z,101034.28
2022-12-25T10:46:20.629Z,101025.22
2022-12-25T10:48:55.473Z,101026.59
2022-12-25T10:51:30.980Z,101020.88
2022-12-25T10:54:19.379Z,101030.44
2022-12-25T10:56:53.817Z,101030.88
2022-12-25T10:59:28.042Z,101033.69
2022-12-25T11:02:06.011Z,101022.00
2022-12-25T11:04:39.535Z,101016.94
2022-12-25T11:07:16.287Z,101013.00
2022-12-25T11:09:53.385Z,101000.84
2022-12-25T11:12:30.203Z,100992.81
2022-12-25T11:15:05.546Z,100974.91
2022-12-25T11:17:39.626Z,100970.75
2022-12-25T11:20:16.957Z,100968.84
2022-12-25T11:22:50.932Z,100974.34
2022-12-25T11:25:27.047Z,100980.44
2022-12-25T11:28:01.441Z,100969.41
2022-12-25T11:30:35.773Z,100972.34
2022-12-25T11:33:13.265Z,100972.66
2022-12-25T11:35:48.876Z,100976.16
2022-12-25T11:38:23.826Z,100969.41
2022-12-25T11:41:00.424Z,100967.84
2022-12-25T11:43:36.887Z,100978.19
2022-12-25T11:46:14.330Z,100973.25
2022-12-25T11:48:55.983Z,100967.44
2022-12-25T11:51:31.655Z,100955.25
2022-12-25T11:54:09.377Z,100961.75
2022-12-25T11:56:44.427Z,100963.81
2022-12-25T11:59:21.415Z,100969.63
2022-12-25T12:01:57.421Z,100974.81
2022-12-25T12:04:42.081Z,100963.56
2022-12-25T12:07:20.044Z,100966.03
2022-12-25T12:09:57.563Z,100966.03
2022-12-25T12:12:39.709Z,100958.25
2022-12-25T12:15:22.880Z,100965.06
2022-12-25T12:17:56.450Z,100963.38
2022-12-25T12:20:31.196Z,100966.75
2022-12-25T12:23:06.037Z,100969.34
2022-12-25T12:25:39.931Z,100972.34
2022-12-25T12:28:21.136Z,100964.16
2022-12-25T12:30:59.282Z,100952.69
2022-12-25T12:33:35.649Z,100953.31
2022-12-25T12:36:12.160Z,100942.84
2022-12-25T12:38:46.029Z,100933.66
2022-12-25T12:41:19.719Z,100929.00
2022-12-25T12:43:57.779Z,100929.00
2022-12-25T12:46:33.033Z,100922.50
2022-12-25T12:49:10.135Z,100913.25
2022-12-25T12:51:43.704Z,100926.09
2022-12-25T12:54:20.487Z,100918.34
2022-12-25T12:56:58.242Z,100909.66
2022-12-25T12:59:38.888Z,100894.22
2022-12-25T13:02:31.342Z,100902.72
2022-12-25T13:05:06.074Z,100886.69
2022-12-25T13:07:46.327Z,100869.72
2022-12-25T13:10:24.908Z,100867.22
2022-12-25T13:13:00.497Z,100853.69
2022-12-25T13:15:35.956Z,100855.50
2022-12-25T13:18:13.616Z,100871.06
2022-12-25T13:20:49.538Z,100876.22
2022-12-25T13:23:25.674Z,100877.47
2022-12-25T13:26:01.531Z,100871.38
2022-12-25T13:28:36.218Z,100870.81
2022-12-25T13:31:14.989Z,100860.34
2022-12-25T13:33:51.516Z,100844.91
2022-12-25T13:36:25.117Z,100834.63
2022-12-25T13:39:00.180Z,100832.41
2022-12-25T13:41:55.459Z,100849.50
2022-12-25T13:44:30.517Z,100847.28
2022-12-25T13:47:16.515Z,100842.88
2022-12-25T13:49:50.638Z,100844.78
2022-12-25T13:52:28.032Z,100850.09
2022-12-25T13:55:02.159Z,100845.34
2022-12-25T13:57:37.973Z,100840.84
2022-12-25T14:00:19.361Z,100840.03
2022-12-25T14:02:54.433Z,100837.34
2022-12-25T14:05:31.323Z,100840.25
2022-12-25T14:08:14.078Z,100842.63
2022-12-25T14:10:50.264Z,100838.03
2022-12-25T14:13:24.664Z,100828.22
2022-12-25T14:15:58.928Z,100830.81
2022-12-25T14:18:33.763Z,100835.09
2022-12-25T14:21:08.354Z,100832.28
2022-12-25T14:23:42.701Z,100832.16
2022-12-25T14:26:17.062Z,100820.00
2022-12-25T14:28:51.527Z,100825.66
2022-12-25T14:31:25.843Z,100814.38
2022-12-25T14:34:02.076Z,100802.06
2022-12-25T14:36:35.659Z,100790.25
2022-12-25T14:39:23.593Z,100796.56
2022-12-25T14:41:57.519Z,100797.25
2022-12-25T14:44:32.548Z,100788.69
2022-12-25T14:47:14.004Z,100796.25
2022-12-25T14:49:48.860Z,100791.69
2022-12-25T14:52:23.751Z,100776.84
2022-12-25T14:54:59.330Z,100776.63
2022-12-25T14:57:34.686Z,100779.00
2022-12-25T15:00:21.434Z,100779.91
2022-12-25T15:02:56.855Z,100788.34
2022-12-25T15:05:33.414Z,100773.72
2022-12-25T15:08:19.561Z,100766.72
2022-12-25T15:11:02.194Z,100775.41
2022-12-25T15:13:36.420Z,100775.84
2022-12-25T15:16:13.603Z,100765.13
2022-12-25T15:18:47.772Z,100772.66
2022-12-25T15:21:26.212Z,100776.84
2022-12-25T15:24:00.756Z,100771.91
2022-12-25T15:26:34.140Z,100786.31
2022-12-25T15:29:07.739Z,100786.31
2022-12-25T15:31:42.062Z,100769.97
2022-12-25T15:34:17.005Z,100756.22
2022-12-25T15:36:52.455Z,100755.09
2022-12-25T15:39:26.090Z,100756.00
2022-12-25T15:42:12.783Z,100745.63
2022-12-25T15:44:46.659Z,100738.06
2022-12-25T15:47:20.591Z,100731.78
2022-12-25T15:49:54.179Z,100728.19
2022-12-25T15:52:28.997Z,100723.31
2022-12-25T15:55:02.757Z,100722.44
2022-12-25T15:57:36.381Z,100727.19
2022-12-25T16:00:15.536Z,100731.34
2022-12-25T16:02:49.188Z,100718.88
2022-12-25T16:05:22.999Z,100720.56
2022-12-25T16:07:57.673Z,100716.88
2022-12-25T16:10:38.224Z,100722.69
2022-12-25T16:13:12.190Z,100720.78
2022-12-25T16:15:46.002Z,100718.56
2022-12-25T16:18:19.424Z,100707.94
2022-12-25T16:20:53.144Z,100703.34
2022-12-25T16:23:27.892Z,100699.84
2022-12-25T16:26:01.484Z,100697.16
2022-12-25T16:28:34.868Z,100695.56
2022-12-25T16:31:08.436Z,100692.31
2022-12-25T16:33:41.981Z,100687.81
2022-12-25T16:36:15.525Z,100675.84
2022-12-25T16:38:50.252Z,100678.44
2022-12-25T16:41:23.878Z,100674.97
2022-12-25T16:43:57.187Z,100669.88
2022-12-25T16:46:30.867Z,100670.56
2022-12-25T16:49:04.593Z,100667.56
2022-12-25T16:51:38.259Z,100665.88
2022-12-25T16:54:12.902Z,100651.31
2022-12-25T16:56:46.557Z,100660.91
2022-12-25T16:59:20.029Z,100654.03
2022-12-25T17:01:53.684Z,100652.44
2022-12-25T17:04:28.267Z,100645.47
2022-12-25T17:07:01.805Z,100645.16
2022-12-25T17:09:43.700Z,100641.44
2022-12-25T17:12:17.829Z,100637.16
2022-12-25T17:14:51.241Z,100639.66
2022-12-25T17:17:24.759Z,100634.16
2022-12-25T17:19:58.078Z,100629.75
2022-12-25T17:22:31.800Z,100624.44
2022-12-25T17:25:06.795Z,100622.75
2022-12-25T17:27:40.405Z,100623.44
2022-12-25T17:30:13.860Z,100622.53
2022-12-25T17:32:47.422Z,100628.63
2022-12-25T17:35:21.294Z,100622.34
2022-12-25T17:37:55.092Z,100624.81
2022-12-25T17:40:29.790Z,100618.63
2022-12-25T17:43:03.544Z,100624.03
2022-12-25T17:45:37.215Z,100609.38
2022-12-25T17:48:10.857Z,100609.28
2022-12-25T17:50:44.300Z,100612.44
2022-12-25T17:53:18.049Z,100605.38
2022-12-25T17:55:56.751Z,100601.97
2022-12-25T17:58:30.383Z,100596.91
2022-12-25T18:01:06.289Z,100594.00
2022-12-25T18:03:40.305Z,100584.34
2022-12-25T18:06:15.223Z,100582.28
2022-12-25T18:08:49.177Z,100578.38
2022-12-25T18:11:24.822Z,100568.56
2022-12-25T18:14:01.381Z,100563.28
2022-12-25T18:16:36.048Z,100555.88
2022-12-25T18:19:09.938Z,100548.88
2022-12-25T18:21:43.199Z,100558.91
2022-12-25T18:24:16.690Z,100564.88
2022-12-25T18:26:51.375Z,100561.47
2022-12-25T18:29:24.836Z,100550.22
2022-12-25T18:31:58.235Z,100548.75
2022-12-25T18:34:31.990Z,100550.13
2022-12-25T18:37:05.334Z,100541.47
2022-12-25T18:39:39.028Z,100544.63
2022-12-25T18:42:30.867Z,100544.72
2022-12-25T18:45:04.593Z,100526.63
2022-12-25T18:47:38.593Z,100522.34
2022-12-25T18:50:13.723Z,100517.47
2022-12-25T18:52:51.571Z,100512.19
2022-12-25T18:55:26.856Z,100512.19
2022-12-25T18:58:02.368Z,100513.88
2022-12-25T19:00:35.924Z,100500.47
2022-12-25T19:03:09.377Z,100502.94
2022-12-25T19:05:44.260Z,100497.88
2022-12-25T19:08:17.602Z,100492.59
2022-12-25T19:10:51.208Z,100488.09
2022-12-25T19:13:25.963Z,100483.94
2022-12-25T19:16:00.242Z,100482.25
2022-12-25T19:18:33.620Z,100481.59
2022-12-25T19:21:08.217Z,100480.78
2022-12-25T19:23:41.520Z,100472.94
2022-12-25T19:26:15.151Z,100469.53
2022-12-25T19:28:49.875Z,100459.06
2022-12-25T19:31:23.525Z,100464.56
2022-12-25T19:33:56.920Z,100456.69
2022-12-25T19:36:31.139Z,100454.91
2022-12-25T19:39:05.064Z,100451.84
2022-12-25T19:41:38.641Z,100449.25
2022-12-25T19:44:13.501Z,100452.63
2022-12-25T19:46:47.294Z,100443.88
2022-12-25T19:49:20.539Z,100439.47
2022-12-25T19:51:54.058Z,100437.69
2022-12-25T19:54:29.425Z,100431.91
2022-12-25T19:57:02.913Z,100427.63
2022-12-25T19:59:37.497Z,100426.53
2022-12-25T20:02:11.182Z,100425.75
2022-12-25T20:04:44.525Z,100421.66
2022-12-25T20:07:18.079Z,100418.19
2022-12-25T20:09:51.430Z,100420.78
2022-12-25T20:12:24.994Z,100424.84
2022-12-25T20:14:59.769Z,100428.91
2022-12-25T20:17:33.349Z,100421.72
2022-12-25T20:20:07.165Z,100417.78
2022-12-25T20:22:40.788Z,100402.00
2022-12-25T20:25:14.208Z,100407.63
2022-12-25T20:27:48.336Z,100414.50
2022-12-25T20:30:23.058Z,100421.03
2022-12-25T20:32:57.827Z,100423.59
2022-12-25T20:35:31.140Z,100426.09
2022-12-25T20:38:04.722Z,100419.91
2022-12-25T20:41:16.302Z,100413.84
2022-12-25T20:43:31.837Z,100414.06
2022-12-25T20:46:06.634Z,100413.94
2022-12-25T20:48:40.368Z,100413.06
2022-12-25T20:51:14.496Z,100415.84
2022-12-25T20:53:47.963Z,100412.34
2022-12-25T20:56:22.825Z,100418.34
2022-12-25T20:58:57.012Z,100409.88
2022-12-25T21:01:32.152Z,100421.59
2022-12-25T21:04:05.976Z,100419.81
2022-12-25T21:06:39.333Z,100417.13
2022-12-25T21:09:12.813Z,100421.50
2022-12-25T21:11:46.202Z,100424.41
2022-12-25T21:14:19.830Z,100419.66
2022-12-25T21:16:54.691Z,100415.69
2022-12-25T21:19:28.243Z,100422.56
2022-12-25T21:22:01.534Z,100423.47
2022-12-25T21:24:35.145Z,100415.59
2022-12-25T21:27:08.510Z,100413.81
2022-12-25T21:29:42.079Z,100412.31
2022-12-25T21:32:34.190Z,100407.22
2022-12-25T21:35:08.061Z,100408.13
2022-12-25T21:37:41.467Z,100400.25
2022-12-25T21:40:16.620Z,100399.28
2022-12-25T21:42:50.185Z,100396.69
2022-12-25T21:45:23.811Z,100401.06
2022-12-25T21:47:59.796Z,100397.78
2022-12-25T21:50:51.567Z,100397.78
2022-12-25T21:53:24.910Z,100387.22
2022-12-25T21:56:00.519Z,100377.16
2022-12-25T21:58:34.074Z,100382.09
2022-12-25T22:01:07.708Z,100381.78
2022-12-25T22:03:42.525Z,100377.41
2022-12-25T22:06:33.446Z,100392.94
2022-12-25T22:09:07.012Z,100385.97
2022-12-25T22:11:58.325Z,100382.47
2022-12-25T22:14:56.290Z,100384.28
2022-12-25T22:17:49.401Z,100380.69
2022-12-25T22:20:25.803Z,100387.56
2022-12-25T22:22:59.416Z,100381.69
2022-12-25T22:25:33.201Z,100375.63
2022-12-25T22:28:08.502Z,100379.19
2022-12-25T22:30:44.370Z,100381.69
2022-12-25T22:33:20.329Z,100380.91
2022-12-25T22:36:02.690Z,100386.28
2022-12-25T22:38:36.371Z,100388.97
2022-12-25T22:41:09.844Z,100378.41
2022-12-25T22:44:15.771Z,100385.19
2022-12-25T22:46:36.707Z,100399.00
2022-12-25T22:49:10.272Z,100392.16
2022-12-25T22:51:45.287Z,100393.13
2022-12-25T22:54:19.881Z,100390.34
2022-12-25T22:56:53.853Z,100386.97
2022-12-25T22:59:27.316Z,100399.22
2022-12-25T23:02:00.911Z,100393.72
2022-12-25T23:04:34.733Z,100387.75
2022-12-25T23:07:10.872Z,100384.38
2022-12-25T23:09:45.095Z,100391.56
2022-12-25T23:12:35.906Z,100390.66
2022-12-25T23:15:09.885Z,100395.63
2022-12-25T23:18:00.812Z,100395.53
2022-12-25T23:20:51.703Z,100402.28
2022-12-25T23:23:43.512Z,100400.59
2022-12-25T23:26:17.881Z,100395.41
2022-12-25T23:29:08.812Z,100405.09
2022-12-25T23:31:42.836Z,100398.31
2022-12-25T23:34:16.310Z,100389.56
2022-12-25T23:36:50.215Z,100392.44
2022-12-25T23:39:24.863Z,100401.22
2022-12-25T23:41:58.782Z,100396.16
2022-12-25T23:44:32.083Z,100397.16
2022-12-25T23:47:05.631Z,100399.84
2022-12-25T23:49:39.191Z,100394.88
2022-12-25T23:52:13.853Z,100389.00
2022-12-25T23:54:48.564Z,100373.28
2022-12-25T23:57:22.106Z,100371.59
2022-12-25T23:59:55.412Z,100369.41
